sensor_id;sensor_type;location;lat;lon;timestamp;temperature;humidity
2751;DHT22;1383;48.362;10.908;2023-09-19T00:00:44;18.00;71.10
2751;DHT22;1383;48.362;10.908;2023-09-19T00:03:14;18.00;71.20
2751;DHT22;1383;48.362;10.908;2023-09-19T00:05:42;18.00;71.70
2751;DHT22;1383;48.362;10.908;2023-09-19T00:08:13;18.00;71.70
2751;DHT22;1383;48.362;10.908;2023-09-19T00:10:41;18.10;71.80
2751;DHT22;1383;48.362;10.908;2023-09-19T00:13:09;18.10;70.90
2751;DHT22;1383;48.362;10.908;2023-09-19T00:15:44;18.10;70.60
2751;DHT22;1383;48.362;10.908;2023-09-19T00:18:19;18.20;70.30
2751;DHT22;1383;48.362;10.908;2023-09-19T00:20:48;18.20;70.00
2751;DHT22;1383;48.362;10.908;2023-09-19T00:23:16;18.30;69.70
2751;DHT22;1383;48.362;10.908;2023-09-19T00:25:43;18.20;69.70
2751;DHT22;1383;48.362;10.908;2023-09-19T00:28:10;18.20;70.20
2751;DHT22;1383;48.362;10.908;2023-09-19T00:30:38;18.20;70.00
2751;DHT22;1383;48.362;10.908;2023-09-19T00:33:05;18.20;70.00
2751;DHT22;1383;48.362;10.908;2023-09-19T00:35:35;18.10;70.60
2751;DHT22;1383;48.362;10.908;2023-09-19T00:38:03;18.20;70.40
2751;DHT22;1383;48.362;10.908;2023-09-19T00:40:30;18.20;70.70
2751;DHT22;1383;48.362;10.908;2023-09-19T00:42:58;18.10;70.20
2751;DHT22;1383;48.362;10.908;2023-09-19T00:45:28;18.20;70.20
2751;DHT22;1383;48.362;10.908;2023-09-19T00:47:55;18.20;70.10
2751;DHT22;1383;48.362;10.908;2023-09-19T00:50:25;18.20;69.90
2751;DHT22;1383;48.362;10.908;2023-09-19T00:52:56;18.20;70.10
2751;DHT22;1383;48.362;10.908;2023-09-19T00:55:24;18.20;70.20
2751;DHT22;1383;48.362;10.908;2023-09-19T00:57:52;18.20;70.40
2751;DHT22;1383;48.362;10.908;2023-09-19T01:00:19;18.20;70.40
2751;DHT22;1383;48.362;10.908;2023-09-19T01:02:47;18.20;70.30
2751;DHT22;1383;48.362;10.908;2023-09-19T01:05:15;18.20;70.20
2751;DHT22;1383;48.362;10.908;2023-09-19T01:07:42;18.20;70.50
2751;DHT22;1383;48.362;10.908;2023-09-19T01:10:17;18.20;70.80
2751;DHT22;1383;48.362;10.908;2023-09-19T01:12:52;18.20;70.70
2751;DHT22;1383;48.362;10.908;2023-09-19T01:29:49;18.30;71.10
2751;DHT22;1383;48.362;10.908;2023-09-19T01:32:18;18.30;71.10
2751;DHT22;1383;48.362;10.908;2023-09-19T01:34:52;18.30;71.30
2751;DHT22;1383;48.362;10.908;2023-09-19T01:37:21;18.30;71.40
2751;DHT22;1383;48.362;10.908;2023-09-19T01:39:58;18.30;71.50
2751;DHT22;1383;48.362;10.908;2023-09-19T01:45:52;18.30;72.00
2751;DHT22;1383;48.362;10.908;2023-09-19T01:48:43;18.20;72.50
2751;DHT22;1383;48.362;10.908;2023-09-19T01:51:18;18.20;73.00
2751;DHT22;1383;48.362;10.908;2023-09-19T01:54:02;18.20;73.00
2751;DHT22;1383;48.362;10.908;2023-09-19T01:59:13;18.10;73.50
2751;DHT22;1383;48.362;10.908;2023-09-19T02:01:45;18.20;73.90
2751;DHT22;1383;48.362;10.908;2023-09-19T02:04:12;18.20;73.80
2751;DHT22;1383;48.362;10.908;2023-09-19T02:06:41;18.20;73.90
2751;DHT22;1383;48.362;10.908;2023-09-19T02:09:08;18.30;73.40
2751;DHT22;1383;48.362;10.908;2023-09-19T02:11:35;18.20;73.70
2751;DHT22;1383;48.362;10.908;2023-09-19T02:14:03;18.20;73.80
2751;DHT22;1383;48.362;10.908;2023-09-19T02:16:31;18.20;74.10
2751;DHT22;1383;48.362;10.908;2023-09-19T02:18:58;18.20;74.00
2751;DHT22;1383;48.362;10.908;2023-09-19T02:21:26;18.10;73.90
2751;DHT22;1383;48.362;10.908;2023-09-19T02:23:56;18.20;73.90
2751;DHT22;1383;48.362;10.908;2023-09-19T02:26:23;18.10;74.10
2751;DHT22;1383;48.362;10.908;2023-09-19T02:28:50;18.10;74.70
2751;DHT22;1383;48.362;10.908;2023-09-19T02:31:17;18.10;74.70
2751;DHT22;1383;48.362;10.908;2023-09-19T02:33:44;18.10;74.80
2751;DHT22;1383;48.362;10.908;2023-09-19T02:36:12;18.00;74.90
2751;DHT22;1383;48.362;10.908;2023-09-19T02:38:44;18.10;75.50
2751;DHT22;1383;48.362;10.908;2023-09-19T02:41:11;18.10;74.80
2751;DHT22;1383;48.362;10.908;2023-09-19T02:43:38;18.10;74.20
2751;DHT22;1383;48.362;10.908;2023-09-19T02:46:06;18.10;74.10
2751;DHT22;1383;48.362;10.908;2023-09-19T02:48:33;18.00;74.00
2751;DHT22;1383;48.362;10.908;2023-09-19T02:51:02;18.10;73.70
2751;DHT22;1383;48.362;10.908;2023-09-19T02:53:32;18.10;73.30
2751;DHT22;1383;48.362;10.908;2023-09-19T02:55:59;18.00;73.50
2751;DHT22;1383;48.362;10.908;2023-09-19T02:58:26;18.00;72.90
2751;DHT22;1383;48.362;10.908;2023-09-19T03:00:54;18.00;72.10
2751;DHT22;1383;48.362;10.908;2023-09-19T03:03:22;18.10;71.80
2751;DHT22;1383;48.362;10.908;2023-09-19T03:05:49;18.10;71.20
2751;DHT22;1383;48.362;10.908;2023-09-19T03:08:20;18.00;71.10
2751;DHT22;1383;48.362;10.908;2023-09-19T03:10:48;18.00;71.30
2751;DHT22;1383;48.362;10.908;2023-09-19T03:13:16;18.00;71.40
2751;DHT22;1383;48.362;10.908;2023-09-19T03:15:43;18.00;71.20
2751;DHT22;1383;48.362;10.908;2023-09-19T03:18:13;18.00;71.20
2751;DHT22;1383;48.362;10.908;2023-09-19T03:20:40;18.00;71.10
2751;DHT22;1383;48.362;10.908;2023-09-19T03:23:07;18.00;71.30
2751;DHT22;1383;48.362;10.908;2023-09-19T03:25:35;17.90;71.20
2751;DHT22;1383;48.362;10.908;2023-09-19T03:28:03;17.90;71.40
2751;DHT22;1383;48.362;10.908;2023-09-19T03:30:33;17.90;71.60
2751;DHT22;1383;48.362;10.908;2023-09-19T03:33:03;17.90;71.50
2751;DHT22;1383;48.362;10.908;2023-09-19T03:35:31;17.80;71.70
2751;DHT22;1383;48.362;10.908;2023-09-19T03:37:58;17.80;71.70
2751;DHT22;1383;48.362;10.908;2023-09-19T03:40:25;17.80;72.00
2751;DHT22;1383;48.362;10.908;2023-09-19T03:42:52;17.80;71.40
2751;DHT22;1383;48.362;10.908;2023-09-19T03:45:19;17.90;71.70
2751;DHT22;1383;48.362;10.908;2023-09-19T03:47:46;17.80;71.70
2751;DHT22;1383;48.362;10.908;2023-09-19T03:50:16;17.90;71.90
2751;DHT22;1383;48.362;10.908;2023-09-19T03:52:47;17.90;71.80
2751;DHT22;1383;48.362;10.908;2023-09-19T03:55:14;17.90;71.40
2751;DHT22;1383;48.362;10.908;2023-09-19T03:57:41;17.90;71.80
2751;DHT22;1383;48.362;10.908;2023-09-19T04:00:08;17.90;71.30
2751;DHT22;1383;48.362;10.908;2023-09-19T04:02:39;18.00;71.10
2751;DHT22;1383;48.362;10.908;2023-09-19T04:05:07;17.90;71.50
2751;DHT22;1383;48.362;10.908;2023-09-19T04:07:34;18.00;71.10
2751;DHT22;1383;48.362;10.908;2023-09-19T04:10:01;18.00;70.70
2751;DHT22;1383;48.362;10.908;2023-09-19T04:12:29;18.00;70.50
2751;DHT22;1383;48.362;10.908;2023-09-19T04:14:57;18.00;70.40
2751;DHT22;1383;48.362;10.908;2023-09-19T04:17:23;18.00;70.70
2751;DHT22;1383;48.362;10.908;2023-09-19T04:19:50;18.10;70.50
2751;DHT22;1383;48.362;10.908;2023-09-19T04:22:17;18.10;70.50
2751;DHT22;1383;48.362;10.908;2023-09-19T04:24:44;18.00;70.40
2751;DHT22;1383;48.362;10.908;2023-09-19T04:27:11;18.00;71.00
2751;DHT22;1383;48.362;10.908;2023-09-19T04:29:42;18.00;70.80
2751;DHT22;1383;48.362;10.908;2023-09-19T04:32:09;17.90;71.90
2751;DHT22;1383;48.362;10.908;2023-09-19T04:34:36;18.00;73.50
2751;DHT22;1383;48.362;10.908;2023-09-19T04:37:05;18.00;73.90
2751;DHT22;1383;48.362;10.908;2023-09-19T04:39:32;17.90;75.10
2751;DHT22;1383;48.362;10.908;2023-09-19T04:42:00;17.90;75.10
2751;DHT22;1383;48.362;10.908;2023-09-19T04:44:27;18.00;75.00
2751;DHT22;1383;48.362;10.908;2023-09-19T04:46:54;17.90;74.60
2751;DHT22;1383;48.362;10.908;2023-09-19T04:49:21;18.00;74.50
2751;DHT22;1383;48.362;10.908;2023-09-19T04:51:48;17.90;74.70
2751;DHT22;1383;48.362;10.908;2023-09-19T04:54:15;18.00;74.20
2751;DHT22;1383;48.362;10.908;2023-09-19T04:56:42;18.00;74.30
2751;DHT22;1383;48.362;10.908;2023-09-19T04:59:10;18.00;74.10
2751;DHT22;1383;48.362;10.908;2023-09-19T05:01:37;18.00;73.40
2751;DHT22;1383;48.362;10.908;2023-09-19T05:04:05;18.00;73.60
2751;DHT22;1383;48.362;10.908;2023-09-19T05:06:33;17.90;73.80
2751;DHT22;1383;48.362;10.908;2023-09-19T05:09:00;17.90;73.80
2751;DHT22;1383;48.362;10.908;2023-09-19T05:11:27;17.90;74.00
2751;DHT22;1383;48.362;10.908;2023-09-19T05:13:57;17.90;74.10
2751;DHT22;1383;48.362;10.908;2023-09-19T05:16:24;17.80;73.90
2751;DHT22;1383;48.362;10.908;2023-09-19T05:18:51;17.80;73.70
2751;DHT22;1383;48.362;10.908;2023-09-19T05:21:18;17.70;74.30
2751;DHT22;1383;48.362;10.908;2023-09-19T05:23:45;17.70;74.00
2751;DHT22;1383;48.362;10.908;2023-09-19T05:26:12;17.70;74.40
2751;DHT22;1383;48.362;10.908;2023-09-19T05:28:39;17.70;75.50
2751;DHT22;1383;48.362;10.908;2023-09-19T05:31:06;17.80;74.40
2751;DHT22;1383;48.362;10.908;2023-09-19T05:33:33;17.80;73.70
2751;DHT22;1383;48.362;10.908;2023-09-19T05:36:00;17.80;73.60
2751;DHT22;1383;48.362;10.908;2023-09-19T05:38:27;17.80;73.70
2751;DHT22;1383;48.362;10.908;2023-09-19T05:40:54;17.90;73.60
2751;DHT22;1383;48.362;10.908;2023-09-19T05:43:21;17.90;72.80
2751;DHT22;1383;48.362;10.908;2023-09-19T05:45:48;18.00;72.40
2751;DHT22;1383;48.362;10.908;2023-09-19T05:48:19;18.10;71.70
2751;DHT22;1383;48.362;10.908;2023-09-19T05:50:48;18.10;71.50
2751;DHT22;1383;48.362;10.908;2023-09-19T05:53:15;18.10;71.00
2751;DHT22;1383;48.362;10.908;2023-09-19T05:55:43;18.20;70.80
2751;DHT22;1383;48.362;10.908;2023-09-19T05:58:10;18.20;70.30
2751;DHT22;1383;48.362;10.908;2023-09-19T06:00:40;18.30;70.90
2751;DHT22;1383;48.362;10.908;2023-09-19T06:03:10;18.20;70.50
2751;DHT22;1383;48.362;10.908;2023-09-19T06:05:40;18.30;70.40
2751;DHT22;1383;48.362;10.908;2023-09-19T06:08:08;18.40;69.90
2751;DHT22;1383;48.362;10.908;2023-09-19T06:10:36;18.50;70.10
2751;DHT22;1383;48.362;10.908;2023-09-19T06:13:03;18.60;69.30
2751;DHT22;1383;48.362;10.908;2023-09-19T06:15:37;18.60;67.70
2751;DHT22;1383;48.362;10.908;2023-09-19T06:18:04;18.70;66.70
2751;DHT22;1383;48.362;10.908;2023-09-19T06:20:33;18.80;66.00
2751;DHT22;1383;48.362;10.908;2023-09-19T06:23:00;18.80;65.00
2751;DHT22;1383;48.362;10.908;2023-09-19T06:25:29;18.80;64.30
2751;DHT22;1383;48.362;10.908;2023-09-19T06:27:56;18.80;63.70
2751;DHT22;1383;48.362;10.908;2023-09-19T06:30:24;18.80;63.90
2751;DHT22;1383;48.362;10.908;2023-09-19T06:32:59;18.80;63.60
2751;DHT22;1383;48.362;10.908;2023-09-19T06:35:28;18.80;63.70
2751;DHT22;1383;48.362;10.908;2023-09-19T06:38:02;18.80;64.00
2751;DHT22;1383;48.362;10.908;2023-09-19T06:40:29;18.80;63.80
2751;DHT22;1383;48.362;10.908;2023-09-19T06:42:57;18.80;63.50
2751;DHT22;1383;48.362;10.908;2023-09-19T06:45:24;18.90;64.00
2751;DHT22;1383;48.362;10.908;2023-09-19T06:47:54;18.80;63.60
2751;DHT22;1383;48.362;10.908;2023-09-19T06:50:24;18.90;64.00
2751;DHT22;1383;48.362;10.908;2023-09-19T06:52:53;19.00;63.20
2751;DHT22;1383;48.362;10.908;2023-09-19T06:55:21;19.00;62.90
2751;DHT22;1383;48.362;10.908;2023-09-19T06:57:52;19.10;62.60
2751;DHT22;1383;48.362;10.908;2023-09-19T07:00:21;19.40;61.80
2751;DHT22;1383;48.362;10.908;2023-09-19T07:02:58;19.60;60.70
2751;DHT22;1383;48.362;10.908;2023-09-19T07:05:27;19.70;58.90
2751;DHT22;1383;48.362;10.908;2023-09-19T07:07:54;19.70;58.90
2751;DHT22;1383;48.362;10.908;2023-09-19T07:10:22;19.80;58.90
2751;DHT22;1383;48.362;10.908;2023-09-19T07:12:57;19.90;59.10
2751;DHT22;1383;48.362;10.908;2023-09-19T07:15:26;19.90;58.60
2751;DHT22;1383;48.362;10.908;2023-09-19T07:17:54;19.80;58.20
2751;DHT22;1383;48.362;10.908;2023-09-19T07:20:21;19.80;58.80
2751;DHT22;1383;48.362;10.908;2023-09-19T07:22:52;19.90;58.90
2751;DHT22;1383;48.362;10.908;2023-09-19T07:25:19;19.90;59.00
2751;DHT22;1383;48.362;10.908;2023-09-19T07:27:46;19.80;58.90
2751;DHT22;1383;48.362;10.908;2023-09-19T07:30:13;19.80;59.20
2751;DHT22;1383;48.362;10.908;2023-09-19T07:32:41;19.80;59.80
2751;DHT22;1383;48.362;10.908;2023-09-19T07:35:08;19.90;60.00
2751;DHT22;1383;48.362;10.908;2023-09-19T07:37:36;20.20;59.60
2751;DHT22;1383;48.362;10.908;2023-09-19T07:40:03;20.40;58.40
2751;DHT22;1383;48.362;10.908;2023-09-19T07:42:37;20.60;57.40
2751;DHT22;1383;48.362;10.908;2023-09-19T07:45:06;20.70;56.60
2751;DHT22;1383;48.362;10.908;2023-09-19T07:47:34;21.00;56.50
2751;DHT22;1383;48.362;10.908;2023-09-19T07:50:03;21.20;55.10
2751;DHT22;1383;48.362;10.908;2023-09-19T07:52:30;21.40;54.20
2751;DHT22;1383;48.362;10.908;2023-09-19T07:54:59;21.60;52.90
2751;DHT22;1383;48.362;10.908;2023-09-19T07:57:28;21.80;51.60
2751;DHT22;1383;48.362;10.908;2023-09-19T07:59:55;21.90;51.70
2751;DHT22;1383;48.362;10.908;2023-09-19T08:02:23;22.20;50.50
2751;DHT22;1383;48.362;10.908;2023-09-19T08:04:50;22.40;49.70
2751;DHT22;1383;48.362;10.908;2023-09-19T08:07:19;22.60;49.30
2751;DHT22;1383;48.362;10.908;2023-09-19T08:09:45;22.70;48.70
2751;DHT22;1383;48.362;10.908;2023-09-19T08:12:15;22.90;47.80
2751;DHT22;1383;48.362;10.908;2023-09-19T08:14:42;23.10;47.20
2751;DHT22;1383;48.362;10.908;2023-09-19T08:17:09;23.30;47.00
2751;DHT22;1383;48.362;10.908;2023-09-19T08:19:36;23.50;45.90
2751;DHT22;1383;48.362;10.908;2023-09-19T08:22:03;23.70;45.40
2751;DHT22;1383;48.362;10.908;2023-09-19T08:24:30;24.00;45.40
2751;DHT22;1383;48.362;10.908;2023-09-19T08:26:57;24.30;44.00
2751;DHT22;1383;48.362;10.908;2023-09-19T08:29:25;24.20;42.90
2751;DHT22;1383;48.362;10.908;2023-09-19T08:31:55;24.00;41.80
2751;DHT22;1383;48.362;10.908;2023-09-19T08:34:23;23.60;42.50
2751;DHT22;1383;48.362;10.908;2023-09-19T08:36:54;23.50;42.90
2751;DHT22;1383;48.362;10.908;2023-09-19T08:39:25;23.50;42.80
2751;DHT22;1383;48.362;10.908;2023-09-19T08:41:59;23.30;43.30
2751;DHT22;1383;48.362;10.908;2023-09-19T08:44:27;23.20;43.90
2751;DHT22;1383;48.362;10.908;2023-09-19T08:47:15;23.30;44.20
2751;DHT22;1383;48.362;10.908;2023-09-19T08:50:01;23.40;43.70
2751;DHT22;1383;48.362;10.908;2023-09-19T08:52:41;23.50;43.20
2751;DHT22;1383;48.362;10.908;2023-09-19T08:55:15;23.60;42.10
2751;DHT22;1383;48.362;10.908;2023-09-19T08:57:49;23.90;41.90
2751;DHT22;1383;48.362;10.908;2023-09-19T09:00:19;24.10;40.30
2751;DHT22;1383;48.362;10.908;2023-09-19T09:02:48;23.90;39.90
2751;DHT22;1383;48.362;10.908;2023-09-19T09:05:16;24.00;40.20
2751;DHT22;1383;48.362;10.908;2023-09-19T09:07:50;24.00;39.50
2751;DHT22;1383;48.362;10.908;2023-09-19T09:10:23;24.20;39.60
2751;DHT22;1383;48.362;10.908;2023-09-19T09:12:53;24.40;39.10
2751;DHT22;1383;48.362;10.908;2023-09-19T09:15:24;24.40;38.20
2751;DHT22;1383;48.362;10.908;2023-09-19T09:17:52;24.40;37.50
2751;DHT22;1383;48.362;10.908;2023-09-19T09:20:22;24.20;37.30
2751;DHT22;1383;48.362;10.908;2023-09-19T09:22:52;24.10;37.30
2751;DHT22;1383;48.362;10.908;2023-09-19T09:25:21;24.00;37.40
2751;DHT22;1383;48.362;10.908;2023-09-19T09:28:01;23.90;38.30
2751;DHT22;1383;48.362;10.908;2023-09-19T09:30:36;24.00;38.80
2751;DHT22;1383;48.362;10.908;2023-09-19T09:33:22;24.20;38.90
2751;DHT22;1383;48.362;10.908;2023-09-19T09:35:53;24.10;37.80
2751;DHT22;1383;48.362;10.908;2023-09-19T09:38:24;24.00;38.20
2751;DHT22;1383;48.362;10.908;2023-09-19T09:41:00;24.00;38.40
2751;DHT22;1383;48.362;10.908;2023-09-19T09:43:38;23.90;38.80
2751;DHT22;1383;48.362;10.908;2023-09-19T09:46:17;23.90;38.10
2751;DHT22;1383;48.362;10.908;2023-09-19T09:51:48;23.80;38.00
2751;DHT22;1383;48.362;10.908;2023-09-19T09:54:28;23.70;38.40
2751;DHT22;1383;48.362;10.908;2023-09-19T09:59:58;23.70;38.90
2751;DHT22;1383;48.362;10.908;2023-09-19T10:02:28;23.70;38.70
2751;DHT22;1383;48.362;10.908;2023-09-19T10:05:15;23.40;38.50
2751;DHT22;1383;48.362;10.908;2023-09-19T10:07:49;23.30;39.20
2751;DHT22;1383;48.362;10.908;2023-09-19T10:10:37;23.10;39.40
2751;DHT22;1383;48.362;10.908;2023-09-19T10:13:26;23.10;40.00
2751;DHT22;1383;48.362;10.908;2023-09-19T10:15:56;23.20;39.90
2751;DHT22;1383;48.362;10.908;2023-09-19T10:18:26;23.30;38.90
2751;DHT22;1383;48.362;10.908;2023-09-19T10:20:56;23.20;38.80
2751;DHT22;1383;48.362;10.908;2023-09-19T10:23:27;23.30;39.30
2751;DHT22;1383;48.362;10.908;2023-09-19T10:25:57;23.30;38.90
2751;DHT22;1383;48.362;10.908;2023-09-19T10:28:28;23.50;38.80
2751;DHT22;1383;48.362;10.908;2023-09-19T10:30:57;23.40;38.40
2751;DHT22;1383;48.362;10.908;2023-09-19T10:33:34;23.40;38.30
2751;DHT22;1383;48.362;10.908;2023-09-19T10:36:05;23.30;38.10
2751;DHT22;1383;48.362;10.908;2023-09-19T10:38:33;23.30;37.90
2751;DHT22;1383;48.362;10.908;2023-09-19T10:41:02;23.40;38.00
2751;DHT22;1383;48.362;10.908;2023-09-19T10:43:31;23.50;37.80
2751;DHT22;1383;48.362;10.908;2023-09-19T10:46:07;23.60;37.80
2751;DHT22;1383;48.362;10.908;2023-09-19T10:48:37;23.60;37.40
2751;DHT22;1383;48.362;10.908;2023-09-19T10:51:15;23.50;37.80
2751;DHT22;1383;48.362;10.908;2023-09-19T10:54:00;23.60;37.60
2751;DHT22;1383;48.362;10.908;2023-09-19T10:56:34;23.50;36.80
2751;DHT22;1383;48.362;10.908;2023-09-19T10:59:07;23.40;37.90
2751;DHT22;1383;48.362;10.908;2023-09-19T11:04:30;23.40;38.50
2751;DHT22;1383;48.362;10.908;2023-09-19T11:09:54;23.40;38.60
2751;DHT22;1383;48.362;10.908;2023-09-19T11:14:58;23.30;38.20
2751;DHT22;1383;48.362;10.908;2023-09-19T11:17:36;23.40;38.90
2751;DHT22;1383;48.362;10.908;2023-09-19T11:30:49;23.80;36.80
2751;DHT22;1383;48.362;10.908;2023-09-19T11:36:06;22.80;39.60
2751;DHT22;1383;48.362;10.908;2023-09-19T11:38:57;22.50;41.20
2751;DHT22;1383;48.362;10.908;2023-09-19T11:46:53;21.60;49.80
2751;DHT22;1383;48.362;10.908;2023-09-19T11:49:29;21.60;51.40
2751;DHT22;1383;48.362;10.908;2023-09-19T11:51:57;21.70;51.30
2751;DHT22;1383;48.362;10.908;2023-09-19T11:54:28;21.70;51.60
2751;DHT22;1383;48.362;10.908;2023-09-19T11:57:00;21.80;51.80
2751;DHT22;1383;48.362;10.908;2023-09-19T11:59:28;21.90;49.80
2751;DHT22;1383;48.362;10.908;2023-09-19T12:01:57;21.80;50.50
2751;DHT22;1383;48.362;10.908;2023-09-19T12:07:09;21.80;47.60
2751;DHT22;1383;48.362;10.908;2023-09-19T12:09:42;21.70;46.40
2751;DHT22;1383;48.362;10.908;2023-09-19T12:12:11;21.90;47.80
2751;DHT22;1383;48.362;10.908;2023-09-19T12:14:39;21.90;46.80
2751;DHT22;1383;48.362;10.908;2023-09-19T12:17:08;21.80;44.90
2751;DHT22;1383;48.362;10.908;2023-09-19T12:19:36;21.90;45.50
2751;DHT22;1383;48.362;10.908;2023-09-19T12:22:03;21.90;44.50
2751;DHT22;1383;48.362;10.908;2023-09-19T12:24:33;22.10;44.10
2751;DHT22;1383;48.362;10.908;2023-09-19T12:27:04;22.10;42.80
2751;DHT22;1383;48.362;10.908;2023-09-19T12:29:42;22.10;42.00
2751;DHT22;1383;48.362;10.908;2023-09-19T12:32:10;22.10;41.70
2751;DHT22;1383;48.362;10.908;2023-09-19T12:34:37;22.20;41.40
2751;DHT22;1383;48.362;10.908;2023-09-19T12:37:13;22.20;41.30
2751;DHT22;1383;48.362;10.908;2023-09-19T12:39:51;22.20;41.60
2751;DHT22;1383;48.362;10.908;2023-09-19T12:42:24;22.20;41.40
2751;DHT22;1383;48.362;10.908;2023-09-19T12:44:55;22.20;40.80
2751;DHT22;1383;48.362;10.908;2023-09-19T12:47:24;22.30;41.60
2751;DHT22;1383;48.362;10.908;2023-09-19T12:50:11;22.30;40.90
2751;DHT22;1383;48.362;10.908;2023-09-19T12:52:50;22.30;40.20
2751;DHT22;1383;48.362;10.908;2023-09-19T12:55:21;22.30;39.40
2751;DHT22;1383;48.362;10.908;2023-09-19T12:58:09;22.30;39.60
2751;DHT22;1383;48.362;10.908;2023-09-19T13:00:40;22.30;39.60
2751;DHT22;1383;48.362;10.908;2023-09-19T13:03:19;22.40;39.60
2751;DHT22;1383;48.362;10.908;2023-09-19T13:05:59;22.40;39.30
2751;DHT22;1383;48.362;10.908;2023-09-19T13:08:29;22.60;39.50
2751;DHT22;1383;48.362;10.908;2023-09-19T13:11:14;22.70;39.50
2751;DHT22;1383;48.362;10.908;2023-09-19T13:16:32;22.70;38.80
2751;DHT22;1383;48.362;10.908;2023-09-19T13:19:00;22.90;38.60
2751;DHT22;1383;48.362;10.908;2023-09-19T13:21:31;22.80;38.10
2751;DHT22;1383;48.362;10.908;2023-09-19T13:24:19;22.70;38.50
2751;DHT22;1383;48.362;10.908;2023-09-19T13:26:47;22.70;38.70
2751;DHT22;1383;48.362;10.908;2023-09-19T13:29:15;22.70;39.20
2751;DHT22;1383;48.362;10.908;2023-09-19T13:31:49;22.70;38.60
2751;DHT22;1383;48.362;10.908;2023-09-19T13:34:16;22.80;38.30
2751;DHT22;1383;48.362;10.908;2023-09-19T13:36:45;22.70;38.70
2751;DHT22;1383;48.362;10.908;2023-09-19T13:39:12;22.80;38.60
2751;DHT22;1383;48.362;10.908;2023-09-19T13:41:39;22.80;38.30
2751;DHT22;1383;48.362;10.908;2023-09-19T13:44:06;22.90;38.60
2751;DHT22;1383;48.362;10.908;2023-09-19T13:46:33;22.80;38.60
2751;DHT22;1383;48.362;10.908;2023-09-19T13:49:02;22.80;39.10
2751;DHT22;1383;48.362;10.908;2023-09-19T13:51:33;22.70;39.00
2751;DHT22;1383;48.362;10.908;2023-09-19T13:54:00;22.70;39.30
2751;DHT22;1383;48.362;10.908;2023-09-19T13:56:26;22.70;39.20
2751;DHT22;1383;48.362;10.908;2023-09-19T13:58:54;22.70;39.10
2751;DHT22;1383;48.362;10.908;2023-09-19T14:01:21;22.70;38.70
2751;DHT22;1383;48.362;10.908;2023-09-19T14:03:48;22.70;39.20
2751;DHT22;1383;48.362;10.908;2023-09-19T14:06:17;22.70;39.00
2751;DHT22;1383;48.362;10.908;2023-09-19T14:08:45;22.80;39.10
2751;DHT22;1383;48.362;10.908;2023-09-19T14:11:16;22.80;38.60
2751;DHT22;1383;48.362;10.908;2023-09-19T14:13:43;22.80;38.80
2751;DHT22;1383;48.362;10.908;2023-09-19T14:16:16;22.80;38.70
2751;DHT22;1383;48.362;10.908;2023-09-19T14:18:45;22.90;38.90
2751;DHT22;1383;48.362;10.908;2023-09-19T14:21:13;22.90;38.40
2751;DHT22;1383;48.362;10.908;2023-09-19T14:23:41;22.80;37.40
2751;DHT22;1383;48.362;10.908;2023-09-19T14:26:10;22.80;37.60
2751;DHT22;1383;48.362;10.908;2023-09-19T14:28:47;22.90;37.40
2751;DHT22;1383;48.362;10.908;2023-09-19T14:31:14;22.80;38.00
2751;DHT22;1383;48.362;10.908;2023-09-19T14:33:41;22.80;37.90
2751;DHT22;1383;48.362;10.908;2023-09-19T14:36:09;22.70;38.10
2751;DHT22;1383;48.362;10.908;2023-09-19T14:38:38;22.80;38.20
2751;DHT22;1383;48.362;10.908;2023-09-19T14:41:06;22.80;38.50
2751;DHT22;1383;48.362;10.908;2023-09-19T14:43:33;22.80;38.20
2751;DHT22;1383;48.362;10.908;2023-09-19T14:46:07;22.90;38.30
2751;DHT22;1383;48.362;10.908;2023-09-19T14:48:37;22.90;37.90
2751;DHT22;1383;48.362;10.908;2023-09-19T14:51:08;22.80;38.10
2751;DHT22;1383;48.362;10.908;2023-09-19T14:53:36;22.90;38.20
2751;DHT22;1383;48.362;10.908;2023-09-19T14:56:08;22.80;37.30
2751;DHT22;1383;48.362;10.908;2023-09-19T14:58:35;22.80;36.80
2751;DHT22;1383;48.362;10.908;2023-09-19T15:01:13;22.80;36.90
2751;DHT22;1383;48.362;10.908;2023-09-19T15:03:41;22.70;37.10
2751;DHT22;1383;48.362;10.908;2023-09-19T15:06:10;22.70;37.70
2751;DHT22;1383;48.362;10.908;2023-09-19T15:08:45;22.70;37.80
2751;DHT22;1383;48.362;10.908;2023-09-19T15:11:17;22.70;37.90
2751;DHT22;1383;48.362;10.908;2023-09-19T15:13:46;22.60;38.00
2751;DHT22;1383;48.362;10.908;2023-09-19T15:16:13;22.60;38.00
2751;DHT22;1383;48.362;10.908;2023-09-19T15:18:42;22.60;38.00
2751;DHT22;1383;48.362;10.908;2023-09-19T15:21:10;22.50;38.00
2751;DHT22;1383;48.362;10.908;2023-09-19T15:23:39;22.50;38.30
2751;DHT22;1383;48.362;10.908;2023-09-19T15:26:12;22.50;38.30
2751;DHT22;1383;48.362;10.908;2023-09-19T15:28:39;22.50;38.10
2751;DHT22;1383;48.362;10.908;2023-09-19T15:31:09;22.40;38.30
2751;DHT22;1383;48.362;10.908;2023-09-19T15:33:36;22.40;38.00
2751;DHT22;1383;48.362;10.908;2023-09-19T15:36:11;22.40;38.50
2751;DHT22;1383;48.362;10.908;2023-09-19T15:41:20;22.40;38.00
2751;DHT22;1383;48.362;10.908;2023-09-19T15:43:50;22.40;38.50
2751;DHT22;1383;48.362;10.908;2023-09-19T15:46:16;22.40;38.00
2751;DHT22;1383;48.362;10.908;2023-09-19T15:48:44;22.40;37.80
2751;DHT22;1383;48.362;10.908;2023-09-19T15:51:12;22.40;37.90
2751;DHT22;1383;48.362;10.908;2023-09-19T15:56:13;22.40;37.60
2751;DHT22;1383;48.362;10.908;2023-09-19T15:58:41;22.30;37.80
2751;DHT22;1383;48.362;10.908;2023-09-19T16:01:10;22.30;37.30
2751;DHT22;1383;48.362;10.908;2023-09-19T16:03:38;22.30;37.80
2751;DHT22;1383;48.362;10.908;2023-09-19T16:06:26;22.30;37.90
2751;DHT22;1383;48.362;10.908;2023-09-19T16:08:55;22.30;37.50
2751;DHT22;1383;48.362;10.908;2023-09-19T16:11:24;22.20;37.60
2751;DHT22;1383;48.362;10.908;2023-09-19T16:13:51;22.20;37.60
2751;DHT22;1383;48.362;10.908;2023-09-19T16:16:20;22.10;37.90
2751;DHT22;1383;48.362;10.908;2023-09-19T16:18:51;22.10;38.20
2751;DHT22;1383;48.362;10.908;2023-09-19T16:21:19;22.10;37.90
2751;DHT22;1383;48.362;10.908;2023-09-19T16:23:47;22.00;38.00
2751;DHT22;1383;48.362;10.908;2023-09-19T16:26:14;22.00;38.50
2751;DHT22;1383;48.362;10.908;2023-09-19T16:28:44;22.00;38.30
2751;DHT22;1383;48.362;10.908;2023-09-19T16:31:11;21.90;38.10
2751;DHT22;1383;48.362;10.908;2023-09-19T16:33:40;21.90;38.10
2751;DHT22;1383;48.362;10.908;2023-09-19T16:36:10;21.90;38.00
2751;DHT22;1383;48.362;10.908;2023-09-19T16:38:38;21.80;38.30
2751;DHT22;1383;48.362;10.908;2023-09-19T16:41:06;21.80;38.00
2751;DHT22;1383;48.362;10.908;2023-09-19T16:43:34;21.80;37.90
2751;DHT22;1383;48.362;10.908;2023-09-19T16:46:08;21.70;37.90
2751;DHT22;1383;48.362;10.908;2023-09-19T16:48:35;21.70;37.90
2751;DHT22;1383;48.362;10.908;2023-09-19T16:51:21;21.70;38.00
2751;DHT22;1383;48.362;10.908;2023-09-19T16:53:48;21.70;38.30
2751;DHT22;1383;48.362;10.908;2023-09-19T16:56:20;21.60;38.30
2751;DHT22;1383;48.362;10.908;2023-09-19T16:58:49;21.60;38.30
2751;DHT22;1383;48.362;10.908;2023-09-19T17:01:19;21.50;38.00
2751;DHT22;1383;48.362;10.908;2023-09-19T17:03:48;21.40;38.40
2751;DHT22;1383;48.362;10.908;2023-09-19T17:06:16;21.40;38.40